Terminal Aerodrome Forecast
Issued by NWS Upton, NY

Home | Current Version | Previous Version | Text Only | Print | Product List | Glossary On
Versions: 1 2 3 4 5 6 7 8 9 10 11 12 13 14 15 16 17 18 19 20 21 22 23 24 25 26 27 28 29 30 31
000
FTUS41 KOKX 251215 RRA
TAFLGA
TAF
KLGA 251215Z 2512/2612 VRB05KT 1/2SM FG VV002
     FM251400 15009KT 2SM BR OVC005
     FM251600 15011KT 4SM BR OVC008
     FM251800 16011KT 6SM BR SCT008 BKN015
     FM252300 18012KT 6SM -SHRA BR SCT008 BKN015 PROB30 2523/2601
      5SM -TSRA BKN008CB
     FM260100 27014G22KT P6SM VCSH BKN015
     FM260300 29017G24KT P6SM BKN060
     FM260500 30019G28KT P6SM SCT100=

USA.gov is the U.S. government's official web portal to all federal, state and local government web resources and services.